Acme, PA (15610)

9:23 AM EST on January 31, 2015 (GMT -0500)
Mammoth County Park | Change Station
CLOSE
Current Station
Personal Weather Station
Location: Mt. Pleasant, PA
Elevation: 1150 ft
Nearby Weather Stations
Active Advisory: Winter Storm Watch

Elev 1150 ft 40.21 °N, 79.46 °W | Updated 1 second ago

Overcast
Overcast
11.6 °F
Feels Like 1 °F
N
7.0
Wind Variable Wind from WSW
Gusts 7.0 mph

Today
High -- | Low -- °F
--% Chance of Precip.
Yesterday
High -- | Low -- °F
Precip. -- in
7:27 AM 5:35 PM
Waxing Gibbous, 90% visible
Pressure 30.37 in
Visibility 20.0 miles
Clouds Overcast 3200 ft
Windchill 1 °F
Dew Point 8 °F
Humidity 86%
Rainfall 0.00 in
Snow Depth Not available.
UV 0 out of 12
Pollen .10 out of 12
Air Quality Not available.
Flu Activity Not available.
METAR KLBE 311350Z 23006KT 20SM OVC032 M12/M14 A3037

More Conditions Fewer Conditions

Pressure 30.37 in
Visibility 20.0 miles
Clouds Overcast 3200 ft
Windchill 1 °F
Dew Point 8 °F
Humidity 86%
Rainfall 0.00 in
Snow Depth Not available.
UV 0 out of 12
Pollen .10 out of 12
Air Quality Not available.
Flu Activity Not available.
METAR KLBE 311350Z 23006KT 20SM OVC032 M12/M14 A3037

More Conditions Fewer Conditions

10-Day Weather Forecast

Almanac

Astronomy

Jan. 31, 2015 Rise Set
Actual Time
Civil Twilight
Nautical Twilight
Astronomical Twilight
Moon
Length of Visible Light
Length of Day
Tomorrow will be .
, % of the Moon is Illuminated

Today's Extremes

State Highs State Lows

Community

WunderPhotos

Upload Photos

1,792,058 photos uploaded!

WunderBlogs® & News

Nearby

Air Quality

  Air Quality AQ Index Pollutant
Not available.

Snow Depth

Station Depth Elevation

Earthquake Activity

City Distance Mag. Time & Date
Minimum magnitude displayed is 2.5.

Coastal Water Temperatures

Place Temperature

Nearby Weather Stations